createdAt,value
2023-06-10T00:02:24.426Z,69.40
2023-06-10T00:04:51.663Z,70.30
2023-06-10T00:07:18.987Z,69.50
2023-06-10T00:09:46.174Z,69.50
2023-06-10T00:12:13.158Z,69.40
2023-06-10T00:14:43.670Z,69.50
2023-06-10T00:17:11.008Z,69.60
2023-06-10T00:19:42.549Z,69.50
2023-06-10T00:22:11.715Z,69.50
2023-06-10T00:24:40.201Z,69.50
2023-06-10T00:27:08.138Z,69.60
2023-06-10T00:29:36.415Z,69.50
2023-06-10T00:32:04.431Z,69.50
2023-06-10T00:34:31.545Z,69.50
2023-06-10T00:36:59.513Z,69.50
2023-06-10T00:39:26.900Z,69.60
2023-06-10T00:41:53.942Z,69.60
2023-06-10T00:44:21.154Z,69.60
2023-06-10T00:46:48.443Z,69.70
2023-06-10T00:49:17.873Z,69.60
2023-06-10T00:51:45.272Z,69.60
2023-06-10T00:54:14.735Z,69.60
2023-06-10T00:56:44.232Z,69.60
2023-06-10T00:59:11.349Z,69.60
2023-06-10T01:01:39.246Z,69.60
2023-06-10T01:04:06.897Z,69.60
2023-06-10T01:06:48.537Z,69.60
2023-06-10T01:09:53.861Z,69.60
2023-06-10T01:12:38.434Z,69.60
2023-06-10T01:15:06.718Z,69.60
2023-06-10T01:17:33.985Z,69.50
2023-06-10T01:20:12.918Z,69.60
2023-06-10T01:22:40.174Z,69.60
2023-06-10T01:25:09.074Z,69.60
2023-06-10T01:27:40.980Z,69.70
2023-06-10T01:30:19.563Z,69.80
2023-06-10T01:32:51.484Z,69.70
2023-06-10T01:35:20.066Z,69.80
2023-06-10T01:37:49.149Z,69.70
2023-06-10T01:40:17.769Z,69.70
2023-06-10T01:42:44.898Z,69.70
2023-06-10T01:45:13.588Z,69.80
2023-06-10T01:47:40.993Z,69.70
2023-06-10T01:50:09.033Z,69.80
2023-06-10T01:52:36.249Z,69.80
2023-06-10T01:55:03.838Z,69.80
2023-06-10T01:57:31.109Z,69.70
2023-06-10T01:59:58.363Z,69.80
2023-06-10T02:02:26.204Z,69.90
2023-06-10T02:04:53.551Z,69.80
2023-06-10T02:07:22.040Z,69.80
2023-06-10T02:09:49.717Z,69.90
2023-06-10T02:12:18.197Z,69.90
2023-06-10T02:14:45.711Z,69.80
2023-06-10T02:17:13.888Z,69.80
2023-06-10T02:19:53.775Z,69.80
2023-06-10T02:22:23.522Z,69.90
2023-06-10T02:24:50.825Z,69.80
2023-06-10T02:27:19.204Z,69.90
2023-06-10T02:29:46.450Z,70.80
2023-06-10T02:32:13.815Z,69.90
2023-06-10T02:34:44.000Z,70.00
2023-06-10T02:37:11.801Z,70.00
2023-06-10T02:39:39.866Z,69.90
2023-06-10T02:42:11.864Z,70.00
2023-06-10T02:44:39.580Z,70.00
2023-06-10T02:47:09.086Z,70.00
2023-06-10T02:49:38.118Z,70.00
2023-06-10T02:52:05.665Z,70.00
2023-06-10T02:54:32.872Z,70.00
2023-06-10T02:57:00.157Z,70.00
2023-06-10T02:59:29.750Z,70.00
2023-06-10T03:01:56.926Z,70.00
2023-06-10T03:04:26.819Z,70.10
2023-06-10T03:07:04.781Z,70.00
2023-06-10T03:09:35.394Z,70.00
2023-06-10T03:12:04.877Z,70.10
2023-06-10T03:14:36.896Z,70.00
2023-06-10T03:17:05.896Z,70.10
2023-06-10T03:19:34.608Z,70.10
2023-06-10T03:22:15.893Z,70.00
2023-06-10T03:24:54.588Z,70.10
2023-06-10T03:27:22.087Z,70.00
2023-06-10T03:29:53.052Z,70.10
2023-06-10T03:32:20.783Z,70.10
2023-06-10T03:34:48.925Z,70.10
2023-06-10T03:37:16.329Z,70.10
2023-06-10T03:39:45.448Z,70.10
2023-06-10T03:42:12.667Z,70.10
2023-06-10T03:44:39.790Z,70.10
2023-06-10T03:47:07.000Z,70.00
2023-06-10T03:49:34.305Z,70.10
2023-06-10T03:52:03.195Z,70.10
2023-06-10T03:54:30.887Z,70.00
2023-06-10T03:56:57.928Z,70.00
2023-06-10T03:59:25.026Z,70.00
2023-06-10T04:01:52.390Z,70.00
2023-06-10T04:04:19.494Z,70.10
2023-06-10T04:06:48.492Z,70.00
2023-06-10T04:09:16.784Z,70.00
2023-06-10T04:11:44.736Z,70.10
2023-06-10T04:14:11.789Z,70.00
2023-06-10T04:16:43.716Z,70.90
2023-06-10T04:19:11.845Z,70.00
2023-06-10T04:21:39.328Z,69.90
2023-06-10T04:24:06.492Z,70.00
2023-06-10T04:26:36.632Z,70.00
2023-06-10T04:29:04.168Z,70.00
2023-06-10T04:31:33.279Z,69.80
2023-06-10T04:34:01.844Z,69.80
2023-06-10T04:36:30.545Z,69.80
2023-06-10T04:38:57.855Z,69.80
2023-06-10T04:41:26.525Z,70.80
2023-06-10T04:43:54.693Z,70.00
2023-06-10T04:46:22.086Z,70.00
2023-06-10T04:48:49.431Z,70.00
2023-06-10T04:51:16.496Z,70.00
2023-06-10T04:53:43.852Z,70.00
2023-06-10T04:56:10.822Z,70.00
2023-06-10T04:58:37.868Z,70.00
2023-06-10T05:01:05.183Z,70.00
2023-06-10T05:03:32.413Z,70.00
2023-06-10T05:05:59.551Z,70.10
2023-06-10T05:08:26.610Z,70.20
2023-06-10T05:10:53.883Z,70.20
2023-06-10T05:13:20.969Z,70.20
2023-06-10T05:15:48.166Z,70.20
2023-06-10T05:18:15.277Z,70.20
2023-06-10T05:20:42.516Z,70.20
2023-06-10T05:23:09.753Z,70.40
2023-06-10T05:25:37.166Z,70.40
2023-06-10T05:28:05.531Z,70.30
2023-06-10T05:30:32.763Z,70.30
2023-06-10T05:32:59.917Z,70.30
2023-06-10T05:35:27.048Z,70.30
2023-06-10T05:37:53.998Z,70.30
2023-06-10T05:40:21.165Z,70.30
2023-06-10T05:42:48.240Z,70.30
2023-06-10T05:45:15.386Z,70.30
2023-06-10T05:47:42.858Z,70.30
2023-06-10T05:50:10.998Z,70.20
2023-06-10T05:52:38.426Z,70.20
2023-06-10T05:55:06.168Z,70.30
2023-06-10T05:57:33.345Z,70.30
2023-06-10T06:00:00.413Z,70.20
2023-06-10T06:02:27.668Z,70.20
2023-06-10T06:04:54.948Z,70.30
2023-06-10T06:07:22.173Z,70.20
2023-06-10T06:09:49.185Z,70.20
2023-06-10T06:12:16.230Z,70.20
2023-06-10T06:14:43.284Z,70.20
2023-06-10T06:17:10.261Z,70.20
2023-06-10T06:19:37.474Z,70.30
2023-06-10T06:22:04.900Z,70.20
2023-06-10T06:24:31.967Z,70.20
2023-06-10T06:26:58.990Z,70.20
2023-06-10T06:29:26.045Z,71.20
2023-06-10T06:31:53.858Z,70.20
2023-06-10T06:34:21.162Z,70.20
2023-06-10T06:36:48.087Z,70.30
2023-06-10T06:39:15.778Z,70.30
2023-06-10T06:41:43.679Z,70.30
2023-06-10T06:44:10.937Z,70.20
2023-06-10T06:46:39.422Z,70.30
2023-06-10T06:49:06.479Z,70.30
2023-06-10T06:51:33.495Z,70.30
2023-06-10T06:54:00.517Z,70.30
2023-06-10T06:56:29.131Z,70.30
2023-06-10T06:58:57.988Z,70.30
2023-06-10T07:01:25.796Z,70.30
2023-06-10T07:03:52.972Z,70.30
2023-06-10T07:06:20.008Z,70.30
2023-06-10T07:08:47.191Z,70.20
2023-06-10T07:11:15.156Z,70.20
2023-06-10T07:13:42.962Z,70.10
2023-06-10T07:16:10.196Z,70.10
2023-06-10T07:18:37.751Z,70.20
2023-06-10T07:21:04.749Z,70.10
2023-06-10T07:23:31.965Z,70.10
2023-06-10T07:25:58.949Z,70.10
2023-06-10T07:28:26.760Z,70.10
2023-06-10T07:30:53.798Z,70.10
2023-06-10T07:33:20.778Z,70.10
2023-06-10T07:35:48.422Z,70.10
2023-06-10T07:38:15.599Z,70.10
2023-06-10T07:40:42.701Z,70.10
2023-06-10T07:43:09.714Z,70.00
2023-06-10T07:45:36.686Z,70.00
2023-06-10T07:48:03.956Z,70.00
2023-06-10T07:50:30.948Z,70.00
2023-06-10T07:52:58.051Z,70.00
2023-06-10T07:55:27.392Z,70.00
2023-06-10T07:57:55.568Z,70.00
2023-06-10T08:00:22.833Z,70.00
2023-06-10T08:02:49.962Z,69.90
2023-06-10T08:05:17.682Z,69.90
2023-06-10T08:07:45.672Z,69.90
2023-06-10T08:10:12.923Z,69.90
2023-06-10T08:12:39.952Z,69.90
2023-06-10T08:15:08.042Z,69.90
2023-06-10T08:17:35.769Z,70.00
2023-06-10T08:20:03.103Z,69.90
2023-06-10T08:22:30.846Z,69.90
2023-06-10T08:24:58.048Z,70.10
2023-06-10T08:27:25.093Z,70.10
2023-06-10T08:29:52.456Z,70.00
2023-06-10T08:32:19.423Z,70.00
2023-06-10T08:34:46.918Z,70.00
2023-06-10T08:37:13.996Z,70.10
2023-06-10T08:39:41.020Z,70.10
2023-06-10T08:42:34.786Z,70.10
2023-06-10T08:45:05.802Z,70.10
2023-06-10T08:47:37.541Z,70.00
2023-06-10T08:50:06.313Z,70.00
2023-06-10T08:52:38.777Z,70.00
2023-06-10T08:55:28.983Z,70.90
2023-06-10T08:57:58.660Z,70.00
2023-06-10T09:00:27.693Z,70.00
2023-06-10T09:02:55.543Z,70.00
2023-06-10T09:05:23.227Z,70.00
2023-06-10T09:07:52.812Z,70.10
2023-06-10T09:10:20.107Z,70.10
2023-06-10T09:12:47.331Z,70.20
2023-06-10T09:15:15.755Z,70.20
2023-06-10T09:17:42.974Z,70.20
2023-06-10T09:20:11.189Z,70.30
2023-06-10T09:45:14.370Z,70.90
2023-06-10T09:47:41.805Z,73.80
2023-06-10T09:50:11.160Z,73.00
2023-06-10T09:52:40.546Z,72.50
2023-06-10T09:55:11.298Z,72.00
2023-06-10T09:57:38.474Z,71.70
2023-06-10T10:00:09.143Z,71.50
2023-06-10T10:02:52.421Z,71.30
2023-06-10T10:05:22.622Z,71.10
2023-06-10T10:07:51.207Z,71.00
2023-06-10T10:10:21.286Z,71.00
2023-06-10T10:12:51.681Z,70.90
2023-06-10T10:15:19.539Z,70.90
2023-06-10T10:17:54.123Z,70.80
2023-06-10T10:20:31.053Z,70.80
2023-06-10T10:22:59.166Z,70.70
2023-06-10T10:25:39.342Z,70.70
2023-06-10T10:28:11.538Z,70.70
2023-06-10T10:30:54.749Z,70.70
2023-06-10T10:33:32.930Z,70.70
2023-06-10T10:36:00.880Z,70.80
2023-06-10T10:38:29.472Z,70.80
2023-06-10T10:41:00.848Z,70.90
2023-06-10T10:43:29.928Z,70.80
2023-06-10T10:46:09.862Z,70.80
2023-06-10T10:48:42.114Z,70.80
2023-06-10T10:51:10.523Z,70.80
2023-06-10T10:53:40.868Z,70.90
2023-06-10T10:56:14.754Z,71.00
2023-06-10T10:58:42.727Z,70.90
2023-06-10T11:01:16.302Z,70.90
2023-06-10T11:03:48.506Z,71.10
2023-06-10T11:06:18.876Z,71.10
2023-06-10T11:08:47.625Z,71.10
2023-06-10T11:23:47.626Z,70.70
2023-06-10T11:26:33.043Z,72.20
2023-06-10T11:29:00.053Z,71.60
2023-06-10T11:31:33.418Z,71.30
2023-06-10T11:34:06.392Z,71.00
2023-06-10T11:36:41.488Z,70.70
2023-06-10T11:39:09.185Z,70.60
2023-06-10T11:41:38.714Z,70.50
2023-06-10T11:44:17.237Z,70.50
2023-06-10T11:46:46.911Z,70.60
2023-06-10T11:49:15.679Z,70.50
2023-06-10T11:51:49.949Z,70.50
2023-06-10T11:54:17.253Z,70.60
2023-06-10T11:56:44.730Z,70.70
2023-06-10T11:59:11.772Z,70.90
2023-06-10T12:01:45.499Z,70.80
2023-06-10T12:04:19.059Z,70.90
2023-06-10T12:06:48.675Z,71.90
2023-06-10T12:09:25.121Z,71.00
2023-06-10T12:11:59.142Z,71.10
2023-06-10T12:14:59.206Z,71.10
2023-06-10T12:17:35.929Z,71.30
2023-06-10T12:20:06.564Z,71.40
2023-06-10T12:22:44.655Z,71.30
2023-06-10T12:25:13.344Z,71.50
2023-06-10T12:27:53.130Z,71.50
2023-06-10T12:30:27.376Z,71.50
2023-06-10T12:32:56.207Z,71.60
2023-06-10T12:35:26.237Z,71.50
2023-06-10T12:38:13.172Z,71.50
2023-06-10T12:40:42.019Z,71.40
2023-06-10T12:43:09.332Z,71.50
2023-06-10T12:45:40.712Z,71.40
2023-06-10T12:48:23.490Z,71.40
2023-06-10T12:50:59.099Z,71.40
2023-06-10T12:53:29.646Z,71.50
2023-06-10T12:55:57.449Z,71.50
2023-06-10T12:58:25.243Z,71.70
2023-06-10T13:00:55.519Z,71.80
2023-06-10T13:03:22.827Z,71.90
2023-06-10T13:05:50.069Z,71.90
2023-06-10T13:08:17.482Z,72.20
2023-06-10T13:10:44.820Z,72.10
2023-06-10T13:13:11.835Z,72.10
2023-06-10T13:15:43.083Z,72.10
2023-06-10T13:18:10.991Z,72.00
2023-06-10T13:20:38.095Z,71.90
2023-06-10T13:23:05.093Z,71.60
2023-06-10T13:25:32.233Z,71.60
2023-06-10T13:27:59.404Z,71.60
2023-06-10T13:30:27.558Z,71.30
2023-06-10T13:32:54.929Z,71.30
2023-06-10T13:35:22.135Z,71.30
2023-06-10T13:37:49.442Z,71.30
2023-06-10T13:40:16.713Z,71.20
2023-06-10T13:42:44.188Z,71.30
2023-06-10T13:45:12.060Z,71.20
2023-06-10T13:47:39.718Z,71.30
2023-06-10T13:50:08.283Z,71.30
2023-06-10T13:52:35.200Z,71.20
2023-06-10T13:55:02.359Z,71.30
2023-06-10T13:57:29.557Z,71.20
2023-06-10T13:59:57.426Z,71.20
2023-06-10T14:02:25.044Z,71.20
2023-06-10T14:04:52.410Z,71.20
2023-06-10T14:07:19.398Z,71.20
2023-06-10T14:09:46.455Z,71.20
2023-06-10T14:12:13.703Z,71.30
2023-06-10T14:14:41.021Z,71.30
2023-06-10T14:17:08.297Z,71.30
2023-06-10T14:19:35.541Z,71.30
2023-06-10T14:22:02.774Z,71.30
2023-06-10T14:24:30.684Z,71.30
2023-06-10T14:26:59.383Z,71.30
2023-06-10T14:29:29.838Z,71.40
2023-06-10T14:31:57.191Z,71.40
2023-06-10T14:34:29.679Z,71.40
2023-06-10T14:36:57.005Z,71.50
2023-06-10T14:39:23.934Z,71.50
2023-06-10T14:41:50.960Z,71.60
2023-06-10T14:44:17.947Z,71.50
2023-06-10T14:46:45.054Z,71.50
2023-06-10T14:49:12.103Z,71.50
2023-06-10T14:51:39.303Z,71.50
2023-06-10T14:54:06.616Z,71.50
2023-06-10T14:56:33.613Z,71.60
2023-06-10T14:59:00.650Z,71.60
2023-06-10T15:01:27.766Z,71.60
2023-06-10T15:03:55.201Z,71.50
2023-06-10T15:06:23.847Z,71.50
2023-06-10T15:08:50.985Z,71.50
2023-06-10T15:11:18.138Z,71.50
2023-06-10T15:13:45.644Z,71.60
2023-06-10T15:16:12.710Z,71.50
2023-06-10T15:18:39.741Z,71.50
2023-06-10T15:21:06.926Z,71.50
2023-06-10T15:23:34.135Z,71.60
2023-06-10T15:26:01.198Z,72.50
2023-06-10T15:28:28.729Z,71.50
2023-06-10T15:30:56.241Z,71.60
2023-06-10T15:33:23.321Z,71.50
2023-06-10T15:35:50.644Z,71.50
2023-06-10T15:38:17.835Z,71.50
2023-06-10T15:40:44.925Z,71.50
2023-06-10T15:43:12.257Z,71.50
2023-06-10T15:45:39.379Z,71.50
2023-06-10T15:48:06.775Z,71.50
2023-06-10T15:50:33.876Z,71.40
2023-06-10T15:53:01.071Z,71.50
2023-06-10T15:55:30.222Z,71.40
2023-06-10T15:58:01.558Z,71.40
2023-06-10T16:00:28.908Z,71.40
2023-06-10T16:02:56.099Z,71.40
2023-06-10T16:05:23.318Z,71.50
2023-06-10T16:07:50.504Z,71.40
2023-06-10T16:10:17.767Z,71.50
2023-06-10T16:12:45.059Z,71.50
2023-06-10T16:15:12.786Z,71.30
2023-06-10T16:17:41.401Z,71.30
2023-06-10T16:20:09.272Z,71.30
2023-06-10T16:22:36.735Z,71.30
2023-06-10T16:25:04.291Z,71.30
2023-06-10T16:27:31.329Z,71.30
2023-06-10T16:29:58.716Z,71.30
2023-06-10T16:32:25.715Z,71.30
2023-06-10T16:34:52.974Z,71.30
2023-06-10T16:37:19.990Z,71.30
2023-06-10T16:39:47.019Z,71.30
2023-06-10T16:42:14.066Z,71.40
2023-06-10T16:44:41.026Z,71.30
2023-06-10T16:47:08.226Z,71.30
2023-06-10T16:49:37.268Z,71.40
2023-06-10T16:52:05.718Z,71.40
2023-06-10T16:54:32.753Z,71.40
2023-06-10T16:56:59.941Z,71.40
2023-06-10T16:59:26.930Z,71.50
2023-06-10T17:01:54.069Z,71.50
2023-06-10T17:04:21.096Z,71.50
2023-06-10T17:06:48.193Z,71.50
2023-06-10T17:09:15.439Z,71.60
2023-06-10T17:11:42.452Z,71.60
2023-06-10T17:14:09.872Z,71.50
2023-06-10T17:16:37.460Z,71.50
2023-06-10T17:19:04.833Z,71.40
2023-06-10T17:21:32.157Z,71.40
2023-06-10T17:23:59.619Z,71.40
2023-06-10T17:26:28.097Z,71.20
2023-06-10T17:28:55.539Z,71.30
2023-06-10T17:31:22.927Z,71.20
2023-06-10T17:33:50.083Z,71.30
2023-06-10T17:36:17.178Z,71.30
2023-06-10T17:38:44.769Z,71.20
2023-06-10T17:41:11.996Z,71.10
2023-06-10T17:43:39.004Z,71.20
2023-06-10T17:46:07.744Z,71.10
2023-06-10T17:48:35.237Z,71.10
2023-06-10T17:51:02.278Z,71.10
2023-06-10T17:53:29.838Z,71.10
2023-06-10T17:55:58.001Z,71.10
2023-06-10T17:58:27.077Z,70.90
2023-06-10T18:00:54.781Z,70.70
2023-06-10T18:03:27.410Z,70.70
2023-06-10T18:05:56.149Z,70.80
2023-06-10T18:08:23.766Z,70.80
2023-06-10T18:10:51.194Z,70.80
2023-06-10T18:13:18.154Z,70.90
2023-06-10T18:15:45.316Z,70.90
2023-06-10T18:18:12.376Z,70.90
2023-06-10T18:20:39.546Z,70.90
2023-06-10T18:23:06.923Z,70.90
2023-06-10T18:25:33.940Z,70.80
2023-06-10T18:28:01.180Z,70.90
2023-06-10T18:30:28.774Z,70.90
2023-06-10T18:32:56.047Z,70.90
2023-06-10T18:35:23.111Z,70.90
2023-06-10T18:37:50.145Z,70.90
2023-06-10T18:40:19.106Z,71.00
2023-06-10T18:42:46.330Z,71.90
2023-06-10T18:45:13.596Z,71.00
2023-06-10T18:47:56.324Z,71.00
2023-06-10T18:50:25.042Z,71.00
2023-06-10T18:52:52.180Z,71.00
2023-06-10T18:55:19.309Z,71.00
2023-06-10T18:57:46.356Z,71.00
2023-06-10T19:00:14.503Z,71.00
2023-06-10T19:02:41.777Z,71.00
2023-06-10T19:05:14.174Z,71.00
2023-06-10T19:07:41.276Z,70.90
2023-06-10T19:10:09.004Z,70.90
2023-06-10T19:12:36.075Z,70.80
2023-06-10T19:15:04.739Z,70.90
2023-06-10T19:17:32.063Z,70.90
2023-06-10T19:19:59.033Z,70.90
2023-06-10T19:22:26.348Z,70.80
2023-06-10T19:25:08.317Z,70.80
2023-06-10T19:27:35.855Z,70.70
2023-06-10T19:30:04.852Z,70.80
2023-06-10T19:32:32.162Z,70.80
2023-06-10T19:34:59.443Z,70.70
2023-06-10T19:37:26.710Z,70.80
2023-06-10T19:39:53.761Z,70.70
2023-06-10T19:42:21.158Z,71.60
2023-06-10T19:44:48.337Z,70.70
2023-06-10T19:47:15.548Z,70.70
2023-06-10T19:49:42.870Z,70.70
2023-06-10T19:52:10.021Z,70.60
2023-06-10T19:54:37.344Z,70.70
2023-06-10T19:57:08.726Z,70.70
2023-06-10T19:59:36.681Z,71.30
2023-06-10T20:02:03.968Z,71.60
2023-06-10T20:04:31.344Z,70.70
2023-06-10T20:06:58.603Z,70.70
2023-06-10T20:09:26.036Z,70.60
2023-06-10T20:11:54.442Z,70.70
2023-06-10T20:14:22.323Z,70.60
2023-06-10T20:16:49.494Z,70.60
2023-06-10T20:19:16.857Z,70.60
2023-06-10T20:21:44.087Z,70.60
2023-06-10T20:24:11.245Z,70.50
2023-06-10T20:26:38.304Z,70.50
2023-06-10T20:29:05.855Z,70.50
2023-06-10T20:31:32.917Z,70.50
2023-06-10T20:34:00.340Z,70.60
2023-06-10T20:36:28.996Z,70.60
2023-06-10T20:38:57.335Z,70.50
2023-06-10T20:41:24.505Z,70.50
2023-06-10T20:43:51.901Z,70.50
2023-06-10T20:46:19.039Z,70.50
2023-06-10T20:48:46.221Z,70.40
2023-06-10T20:51:13.287Z,70.50
2023-06-10T20:53:40.851Z,70.40
2023-06-10T20:56:08.880Z,70.50
2023-06-10T20:58:36.607Z,70.40
2023-06-10T21:01:03.742Z,70.40
2023-06-10T21:03:31.125Z,70.40
2023-06-10T21:05:58.132Z,70.40
2023-06-10T21:08:27.702Z,70.30
2023-06-10T21:10:55.626Z,70.20
2023-06-10T21:13:22.717Z,70.30
2023-06-10T21:15:49.967Z,70.30
2023-06-10T21:18:17.498Z,70.20
2023-06-10T21:20:44.761Z,70.30
2023-06-10T21:23:13.967Z,70.20
2023-06-10T21:25:41.746Z,70.30
2023-06-10T21:28:09.055Z,70.20
2023-06-10T21:30:36.392Z,70.20
2023-06-10T21:33:03.995Z,70.20
2023-06-10T21:35:31.151Z,70.10
2023-06-10T21:37:58.105Z,70.10
2023-06-10T21:40:25.546Z,70.10
2023-06-10T21:42:52.681Z,70.10
2023-06-10T21:45:19.941Z,70.10
2023-06-10T21:47:47.148Z,70.10
2023-06-10T21:50:14.300Z,70.20
2023-06-10T21:52:41.397Z,70.00
2023-06-10T21:55:09.390Z,70.10
2023-06-10T21:57:36.833Z,70.10
2023-06-10T22:00:11.982Z,70.00
2023-06-10T22:02:42.750Z,70.00
2023-06-10T22:05:10.214Z,70.10
2023-06-10T22:07:37.605Z,70.00
2023-06-10T22:10:05.218Z,70.00
2023-06-10T22:12:32.243Z,70.00
2023-06-10T22:14:59.282Z,70.00
2023-06-10T22:17:26.584Z,70.00
2023-06-10T22:19:53.712Z,70.00
2023-06-10T22:22:20.994Z,70.00
2023-06-10T22:24:51.345Z,70.00
2023-06-10T22:27:18.505Z,69.90
2023-06-10T22:29:46.006Z,69.80
2023-06-10T22:32:13.220Z,69.80
2023-06-10T22:34:40.385Z,69.80
2023-06-10T22:37:07.538Z,69.80
2023-06-10T22:39:34.570Z,69.80
2023-06-10T22:42:01.606Z,69.80
2023-06-10T22:44:28.642Z,69.80
2023-06-10T22:46:55.882Z,69.90
2023-06-10T22:49:22.957Z,69.80
2023-06-10T22:51:49.995Z,69.70
2023-06-10T22:54:17.027Z,69.70
2023-06-10T22:56:44.473Z,69.70
2023-06-10T22:59:11.819Z,69.70
2023-06-10T23:01:38.903Z,69.80
2023-06-10T23:04:06.239Z,69.70
2023-06-10T23:06:33.266Z,69.70
2023-06-10T23:09:00.365Z,69.70
2023-06-10T23:11:27.710Z,69.60
2023-06-10T23:13:55.407Z,69.70
2023-06-10T23:16:22.447Z,69.70
2023-06-10T23:18:49.455Z,69.70
2023-06-10T23:21:19.954Z,69.70
2023-06-10T23:23:52.519Z,69.70
2023-06-10T23:26:19.892Z,69.60
2023-06-10T23:28:46.946Z,69.50
2023-06-10T23:31:14.026Z,69.60
2023-06-10T23:33:41.648Z,69.50
2023-06-10T23:36:09.150Z,69.50
2023-06-10T23:38:36.912Z,69.50
2023-06-10T23:41:03.997Z,69.50
2023-06-10T23:43:31.094Z,69.50
2023-06-10T23:45:58.200Z,69.40
2023-06-10T23:48:25.445Z,69.40
2023-06-10T23:50:54.450Z,69.30
2023-06-10T23:53:21.624Z,69.50
2023-06-10T23:55:48.648Z,69.40
2023-06-10T23:58:15.888Z,69.40
